createdAt,value
2022-10-07T00:01:11.203Z,90.12
2022-10-07T00:03:39.704Z,90.40
2022-10-07T00:06:17.787Z,90.66
2022-10-07T00:08:49.615Z,90.40
2022-10-07T00:11:22.110Z,89.91
2022-10-07T00:13:52.977Z,89.72
2022-10-07T00:16:27.085Z,89.53
2022-10-07T00:18:57.677Z,89.66
2022-10-07T00:21:28.140Z,90.16
2022-10-07T00:23:56.226Z,91.20
2022-10-07T00:26:26.630Z,91.10
2022-10-07T00:28:56.211Z,91.07
2022-10-07T00:31:27.575Z,90.93
2022-10-07T00:33:56.995Z,90.59
2022-10-07T00:36:33.115Z,90.14
2022-10-07T00:39:04.694Z,89.89
2022-10-07T00:41:38.746Z,89.91
2022-10-07T00:44:31.460Z,89.78
2022-10-07T00:47:03.841Z,89.95
2022-10-07T00:49:41.260Z,90.02
2022-10-07T00:52:09.341Z,90.25
2022-10-07T00:54:38.326Z,90.77
2022-10-07T00:57:07.272Z,90.87
2022-10-07T00:59:40.133Z,90.42
2022-10-07T01:02:10.083Z,90.25
2022-10-07T01:04:38.947Z,90.15
2022-10-07T01:07:07.496Z,89.98
2022-10-07T01:09:41.311Z,90.07
2022-10-07T01:12:18.525Z,90.14
2022-10-07T01:15:00.844Z,90.16
2022-10-07T01:17:36.817Z,90.53
2022-10-07T01:20:19.015Z,90.48
2022-10-07T01:23:19.267Z,90.53
2022-10-07T01:26:05.708Z,90.39
2022-10-07T01:28:59.233Z,90.34
2022-10-07T01:31:35.743Z,90.24
2022-10-07T01:34:06.627Z,90.29
2022-10-07T01:36:37.171Z,90.21
2022-10-07T01:39:12.193Z,90.45
2022-10-07T01:41:40.429Z,90.81
2022-10-07T01:44:10.819Z,91.60
2022-10-07T01:46:39.088Z,91.78
2022-10-07T01:49:09.706Z,91.81
2022-10-07T01:51:43.125Z,91.70
2022-10-07T01:54:42.111Z,91.86
2022-10-07T01:57:19.000Z,91.85
2022-10-07T02:00:07.052Z,91.95
2022-10-07T02:02:47.378Z,91.78
2022-10-07T02:05:35.699Z,91.58
2022-10-07T02:08:21.893Z,91.37
2022-10-07T02:11:05.096Z,91.43
2022-10-07T02:13:56.078Z,91.74
2022-10-07T02:16:35.514Z,92.17
2022-10-07T02:19:14.930Z,92.14
2022-10-07T02:21:45.954Z,92.09
2022-10-07T02:24:16.323Z,92.05
2022-10-07T02:26:46.515Z,92.14
2022-10-07T02:29:18.694Z,92.34
2022-10-07T02:31:50.687Z,92.12
2022-10-07T02:34:20.445Z,92.07
2022-10-07T02:36:53.057Z,92.21
2022-10-07T02:39:21.742Z,92.11
2022-10-07T02:41:58.907Z,92.09
2022-10-07T02:44:39.510Z,92.45
2022-10-07T02:47:20.106Z,92.43
2022-10-07T02:49:53.291Z,92.22
2022-10-07T02:52:23.810Z,92.22
2022-10-07T02:55:00.533Z,92.28
2022-10-07T02:57:33.580Z,92.39
2022-10-07T03:00:02.239Z,92.34
2022-10-07T03:02:46.332Z,92.28
2022-10-07T03:05:19.228Z,92.38
2022-10-07T03:07:58.058Z,92.37
2022-10-07T03:10:29.332Z,92.45
2022-10-07T03:12:57.706Z,92.43
2022-10-07T03:15:25.950Z,92.22
2022-10-07T03:17:54.303Z,92.58
2022-10-07T03:20:22.666Z,93.15
2022-10-07T03:22:50.976Z,93.35
2022-10-07T03:25:19.600Z,93.13
2022-10-07T03:27:48.808Z,92.84
2022-10-07T03:30:19.240Z,92.67
2022-10-07T03:32:49.835Z,92.72
2022-10-07T03:35:18.550Z,93.13
2022-10-07T03:37:47.115Z,93.44
2022-10-07T03:40:15.973Z,93.21
2022-10-07T03:42:44.132Z,92.86
2022-10-07T03:45:12.273Z,92.85
2022-10-07T03:47:40.458Z,93.09
2022-10-07T03:50:08.925Z,93.03
2022-10-07T03:52:36.931Z,92.79
2022-10-07T03:55:05.580Z,92.64
2022-10-07T03:57:55.648Z,92.55
2022-10-07T04:00:28.082Z,92.50
2022-10-07T04:02:56.515Z,92.47
2022-10-07T04:05:25.279Z,92.55
2022-10-07T04:07:54.500Z,92.37
2022-10-07T04:10:22.990Z,92.27
2022-10-07T04:12:52.376Z,92.25
2022-10-07T04:15:21.059Z,92.27
2022-10-07T04:17:53.867Z,92.28
2022-10-07T04:20:21.815Z,92.32
2022-10-07T04:22:49.716Z,92.42
2022-10-07T04:25:33.629Z,92.44
2022-10-07T04:28:07.254Z,92.50
2022-10-07T04:30:40.589Z,92.66
2022-10-07T04:33:08.820Z,92.79
2022-10-07T04:35:41.212Z,92.74
2022-10-07T04:38:11.917Z,92.93
2022-10-07T04:40:45.564Z,92.91
2022-10-07T04:43:19.473Z,92.93
2022-10-07T04:45:55.474Z,93.01
2022-10-07T04:48:24.095Z,93.24
2022-10-07T04:50:53.050Z,93.45
2022-10-07T04:53:22.285Z,93.65
2022-10-07T04:55:54.697Z,93.54
2022-10-07T04:58:24.022Z,93.60
2022-10-07T05:00:54.120Z,93.60
2022-10-07T05:03:25.140Z,93.67
2022-10-07T05:05:55.503Z,93.76
2022-10-07T05:08:24.830Z,93.72
2022-10-07T05:10:57.560Z,93.79
2022-10-07T05:13:26.501Z,93.68
2022-10-07T05:15:57.080Z,93.70
2022-10-07T05:18:26.839Z,93.66
2022-10-07T05:20:56.819Z,93.64
2022-10-07T05:23:28.558Z,93.74
2022-10-07T05:26:02.005Z,93.74
2022-10-07T05:28:31.078Z,94.02
2022-10-07T05:31:08.120Z,94.13
2022-10-07T05:33:37.088Z,94.11
2022-10-07T05:36:07.985Z,94.26
2022-10-07T05:38:37.254Z,94.30
2022-10-07T05:41:07.994Z,94.34
2022-10-07T05:43:42.168Z,94.39
2022-10-07T05:46:15.438Z,94.35
2022-10-07T05:48:48.681Z,94.24
2022-10-07T05:51:17.669Z,94.18
2022-10-07T05:53:47.079Z,94.07
2022-10-07T05:56:17.517Z,94.00
2022-10-07T05:58:46.184Z,93.91
2022-10-07T06:01:19.893Z,93.67
2022-10-07T06:03:53.220Z,93.49
2022-10-07T06:06:24.528Z,93.16
2022-10-07T06:08:53.773Z,92.68
2022-10-07T06:11:40.742Z,92.41
2022-10-07T06:14:08.569Z,91.52
2022-10-07T06:16:36.771Z,90.15
2022-10-07T06:19:04.880Z,88.90
2022-10-07T06:21:32.805Z,88.62
2022-10-07T06:24:03.079Z,88.32
2022-10-07T06:26:34.596Z,87.54
2022-10-07T06:29:04.830Z,87.34
2022-10-07T06:31:33.591Z,87.17
2022-10-07T06:34:03.257Z,86.84
2022-10-07T06:36:31.910Z,86.29
2022-10-07T06:39:00.366Z,85.65
2022-10-07T06:41:32.142Z,85.13
2022-10-07T06:44:28.453Z,84.95
2022-10-07T06:46:58.154Z,85.21
2022-10-07T06:49:26.960Z,85.38
2022-10-07T06:51:55.460Z,85.41
2022-10-07T06:54:24.315Z,85.17
2022-10-07T06:56:52.355Z,85.23
2022-10-07T06:59:21.526Z,85.33
2022-10-07T07:02:00.821Z,85.35
2022-10-07T07:04:29.347Z,85.10
2022-10-07T07:06:57.614Z,85.23
2022-10-07T07:09:25.760Z,85.36
2022-10-07T07:11:56.642Z,84.94
2022-10-07T07:14:35.816Z,84.42
2022-10-07T07:17:07.500Z,84.30
2022-10-07T07:19:35.448Z,83.60
2022-10-07T07:22:04.155Z,81.60
2022-10-07T07:24:32.157Z,79.50
2022-10-07T07:27:00.499Z,78.86
2022-10-07T07:29:29.421Z,77.45
2022-10-07T07:32:02.326Z,77.35
2022-10-07T07:34:33.981Z,74.74
2022-10-07T07:37:02.256Z,74.80
2022-10-07T07:39:35.303Z,73.55
2022-10-07T07:42:08.318Z,72.67
2022-10-07T07:44:37.815Z,72.58
2022-10-07T07:47:09.259Z,72.06
2022-10-07T07:49:37.360Z,72.72
2022-10-07T07:52:05.541Z,71.33
2022-10-07T07:54:39.848Z,70.18
2022-10-07T07:57:08.432Z,69.08
2022-10-07T07:59:37.521Z,69.38
2022-10-07T08:02:08.008Z,68.85
2022-10-07T08:04:36.931Z,68.41
2022-10-07T08:07:05.471Z,67.83
2022-10-07T08:09:34.020Z,68.15
2022-10-07T08:12:02.011Z,67.71
2022-10-07T08:14:31.281Z,67.47
2022-10-07T08:17:00.457Z,67.67
2022-10-07T08:19:29.736Z,67.09
2022-10-07T08:21:58.312Z,67.64
2022-10-07T08:24:28.076Z,67.33
2022-10-07T08:26:56.728Z,66.29
2022-10-07T08:29:24.964Z,66.09
2022-10-07T08:31:52.960Z,64.53
2022-10-07T08:34:21.272Z,63.58
2022-10-07T08:36:50.697Z,63.03
2022-10-07T08:39:18.728Z,63.70
2022-10-07T08:42:08.690Z,62.94
2022-10-07T08:44:43.072Z,61.84
2022-10-07T08:47:30.572Z,61.64
2022-10-07T08:50:23.684Z,60.77
2022-10-07T08:53:01.871Z,60.63
2022-10-07T08:55:42.224Z,60.21
2022-10-07T08:58:31.055Z,60.12
2022-10-07T09:01:32.994Z,59.42
2022-10-07T09:04:31.226Z,58.90
2022-10-07T09:07:12.435Z,57.94
2022-10-07T09:09:53.624Z,57.34
2022-10-07T09:12:49.762Z,56.68
2022-10-07T09:16:04.275Z,54.67
2022-10-07T09:18:41.208Z,54.09
2022-10-07T09:21:17.340Z,53.53
2022-10-07T09:23:47.189Z,52.45
2022-10-07T09:26:19.178Z,51.79
2022-10-07T09:28:47.154Z,51.54
2022-10-07T09:31:16.351Z,51.16
2022-10-07T09:33:46.957Z,49.96
2022-10-07T09:36:19.005Z,50.26
2022-10-07T09:38:54.556Z,49.74
2022-10-07T09:41:32.156Z,48.78
2022-10-07T09:44:11.136Z,48.22
2022-10-07T09:46:52.434Z,48.75
2022-10-07T09:49:31.562Z,48.45
2022-10-07T09:52:05.855Z,46.85
2022-10-07T09:54:36.200Z,46.07
2022-10-07T09:57:05.790Z,45.42
2022-10-07T09:59:36.735Z,44.90
2022-10-07T10:02:25.312Z,44.32
2022-10-07T10:04:57.555Z,44.40
2022-10-07T10:07:30.614Z,44.36
2022-10-07T10:10:14.852Z,43.76
2022-10-07T10:12:53.055Z,43.47
2022-10-07T10:15:42.854Z,42.98
2022-10-07T10:18:23.124Z,42.63
2022-10-07T10:20:51.124Z,43.13
2022-10-07T10:23:36.048Z,42.95
2022-10-07T10:26:33.556Z,41.63
2022-10-07T10:29:29.073Z,41.09
2022-10-07T10:32:16.080Z,41.63
2022-10-07T10:34:49.997Z,41.75
2022-10-07T10:37:40.074Z,39.88
2022-10-07T10:40:33.140Z,38.65
2022-10-07T10:43:07.047Z,38.04
2022-10-07T10:45:50.737Z,37.87
2022-10-07T10:48:30.821Z,36.61
2022-10-07T10:51:36.417Z,35.62
2022-10-07T10:54:05.221Z,33.88
2022-10-07T10:57:12.243Z,34.69
2022-10-07T11:00:12.343Z,34.43
2022-10-07T11:02:49.357Z,34.11
2022-10-07T11:05:32.191Z,34.54
2022-10-07T11:08:37.871Z,34.46
2022-10-07T11:11:11.836Z,34.47
2022-10-07T11:13:48.458Z,34.37
2022-10-07T11:16:36.645Z,34.56
2022-10-07T11:19:23.883Z,34.81
2022-10-07T11:21:59.932Z,34.84
2022-10-07T11:24:36.534Z,34.78
2022-10-07T11:27:15.099Z,34.91
2022-10-07T11:30:10.272Z,34.89
2022-10-07T11:33:01.398Z,35.35
2022-10-07T11:35:46.959Z,35.95
2022-10-07T11:38:20.096Z,35.64
2022-10-07T11:41:08.740Z,35.63
2022-10-07T11:43:46.589Z,35.22
2022-10-07T11:46:21.400Z,36.03
2022-10-07T11:49:02.231Z,36.11
2022-10-07T11:51:37.914Z,36.25
2022-10-07T11:54:12.981Z,35.99
2022-10-07T11:56:52.093Z,35.79
2022-10-07T11:59:43.927Z,36.31
2022-10-07T12:02:30.447Z,36.73
2022-10-07T12:04:59.838Z,37.02
2022-10-07T12:07:34.962Z,37.32
2022-10-07T12:10:04.000Z,37.26
2022-10-07T12:12:42.832Z,37.21
2022-10-07T12:15:39.289Z,36.44
2022-10-07T12:18:17.376Z,36.61
2022-10-07T12:20:51.480Z,36.68
2022-10-07T12:23:22.500Z,36.18
2022-10-07T12:26:00.811Z,36.19
2022-10-07T12:28:34.685Z,36.07
2022-10-07T12:31:06.056Z,36.57
2022-10-07T12:33:52.160Z,36.62
2022-10-07T12:36:23.824Z,36.27
2022-10-07T12:39:01.152Z,36.16
2022-10-07T12:41:30.019Z,36.61
2022-10-07T12:44:19.864Z,36.11
2022-10-07T12:46:55.019Z,36.53
2022-10-07T12:49:34.238Z,37.17
2022-10-07T12:52:13.370Z,37.68
2022-10-07T12:54:59.483Z,36.97
2022-10-07T12:57:37.048Z,36.56
2022-10-07T13:00:18.351Z,36.78
2022-10-07T13:03:07.815Z,35.82
2022-10-07T13:06:05.481Z,36.41
2022-10-07T13:09:02.778Z,36.89
2022-10-07T13:11:59.868Z,37.22
2022-10-07T13:14:46.418Z,37.10
2022-10-07T13:17:17.399Z,37.61
2022-10-07T13:19:54.409Z,37.59
2022-10-07T13:22:24.276Z,37.34
2022-10-07T13:24:55.708Z,36.61
2022-10-07T13:27:26.102Z,36.41
2022-10-07T13:29:56.656Z,36.40
2022-10-07T13:32:30.326Z,36.68
2022-10-07T13:35:00.309Z,37.00
2022-10-07T13:37:37.707Z,37.15
2022-10-07T13:40:33.989Z,37.37
2022-10-07T13:43:07.209Z,37.43
2022-10-07T13:45:46.055Z,37.22
2022-10-07T13:48:21.957Z,37.33
2022-10-07T13:50:52.095Z,37.68
2022-10-07T13:53:28.099Z,38.05
2022-10-07T13:56:04.932Z,38.11
2022-10-07T13:58:33.957Z,38.44
2022-10-07T14:01:05.782Z,38.38
2022-10-07T14:03:33.839Z,38.68
2022-10-07T14:06:01.817Z,39.22
2022-10-07T14:08:30.614Z,39.72
2022-10-07T14:11:06.550Z,39.50
2022-10-07T14:13:37.955Z,39.62
2022-10-07T14:16:06.196Z,40.09
2022-10-07T14:18:34.143Z,40.45
2022-10-07T14:21:13.002Z,40.70
2022-10-07T14:23:41.665Z,40.70
2022-10-07T14:26:15.288Z,41.20
2022-10-07T14:28:43.901Z,41.36
2022-10-07T14:31:33.945Z,41.59
2022-10-07T14:34:39.256Z,41.99
2022-10-07T14:37:30.959Z,42.01
2022-10-07T14:39:59.653Z,42.48
2022-10-07T14:42:32.949Z,42.74
2022-10-07T14:45:04.820Z,43.36
2022-10-07T14:47:38.828Z,43.94
2022-10-07T14:50:06.904Z,44.20
2022-10-07T14:52:44.970Z,44.52
2022-10-07T14:55:28.110Z,44.70
2022-10-07T14:57:56.149Z,45.02
2022-10-07T15:00:29.568Z,45.31
2022-10-07T15:02:58.311Z,45.59
2022-10-07T15:05:31.225Z,46.03
2022-10-07T15:08:00.515Z,46.39
2022-10-07T15:10:28.839Z,46.47
2022-10-07T15:12:56.831Z,46.59
2022-10-07T15:15:25.369Z,46.91
2022-10-07T15:17:53.435Z,47.23
2022-10-07T15:20:21.435Z,47.48
2022-10-07T15:22:50.626Z,47.84
2022-10-07T15:25:19.474Z,48.23
2022-10-07T15:27:47.312Z,48.52
2022-10-07T15:30:15.334Z,48.80
2022-10-07T15:32:44.055Z,49.20
2022-10-07T15:35:12.524Z,49.45
2022-10-07T15:37:45.902Z,49.93
2022-10-07T15:40:14.767Z,49.99
2022-10-07T15:42:44.760Z,50.45
2022-10-07T15:45:13.364Z,50.79
2022-10-07T15:47:41.468Z,51.27
2022-10-07T15:50:10.662Z,51.86
2022-10-07T15:52:38.711Z,52.17
2022-10-07T15:55:07.993Z,52.54
2022-10-07T15:57:36.232Z,53.00
2022-10-07T16:00:05.092Z,53.36
2022-10-07T16:02:40.100Z,53.44
2022-10-07T16:05:09.823Z,53.47
2022-10-07T16:07:37.624Z,54.12
2022-10-07T16:10:08.532Z,54.49
2022-10-07T16:12:40.044Z,54.89
2022-10-07T16:15:08.268Z,55.43
2022-10-07T16:17:36.256Z,55.76
2022-10-07T16:20:10.406Z,55.82
2022-10-07T16:22:39.432Z,56.45
2022-10-07T16:25:07.963Z,56.54
2022-10-07T16:27:54.077Z,56.94
2022-10-07T16:30:40.470Z,57.56
2022-10-07T16:33:08.835Z,57.84
2022-10-07T16:35:36.726Z,58.33
2022-10-07T16:38:05.440Z,58.61
2022-10-07T16:40:33.350Z,58.94
2022-10-07T16:43:01.376Z,59.31
2022-10-07T16:45:29.318Z,59.66
2022-10-07T16:47:57.440Z,59.91
2022-10-07T16:50:25.418Z,60.11
2022-10-07T16:52:53.548Z,60.42
2022-10-07T16:55:21.427Z,60.57
2022-10-07T16:57:49.515Z,60.73
2022-10-07T17:00:17.869Z,61.10
2022-10-07T17:02:45.780Z,61.50
2022-10-07T17:05:13.778Z,62.56
2022-10-07T17:07:41.701Z,63.59
2022-10-07T17:10:09.812Z,63.89
2022-10-07T17:12:38.045Z,64.52
2022-10-07T17:15:06.255Z,64.37
2022-10-07T17:17:34.122Z,64.55
2022-10-07T17:20:02.066Z,64.58
2022-10-07T17:22:30.051Z,65.03
2022-10-07T17:25:03.199Z,65.79
2022-10-07T17:27:31.699Z,66.85
2022-10-07T17:29:59.718Z,66.80
2022-10-07T17:32:27.698Z,67.35
2022-10-07T17:34:56.453Z,67.61
2022-10-07T17:37:25.015Z,67.58
2022-10-07T17:39:52.963Z,67.96
2022-10-07T17:42:21.012Z,70.00
2022-10-07T17:44:49.965Z,70.86
2022-10-07T17:47:18.827Z,71.08
2022-10-07T17:49:46.815Z,71.83
2022-10-07T17:52:14.981Z,71.04
2022-10-07T17:54:42.882Z,71.27
2022-10-07T17:57:10.880Z,71.33
2022-10-07T17:59:38.853Z,71.99
2022-10-07T18:02:06.822Z,72.54
2022-10-07T18:04:34.879Z,72.65
2022-10-07T18:07:03.116Z,72.82
2022-10-07T18:09:31.084Z,72.76
2022-10-07T18:12:17.704Z,74.22
2022-10-07T18:15:04.263Z,75.87
2022-10-07T18:17:32.292Z,75.44
2022-10-07T18:20:01.220Z,76.03
2022-10-07T18:22:29.386Z,76.20
2022-10-07T18:24:58.635Z,75.19
2022-10-07T18:27:27.766Z,75.53
2022-10-07T18:29:56.766Z,76.31
2022-10-07T18:32:25.597Z,76.54
2022-10-07T18:34:54.194Z,76.28
2022-10-07T18:37:23.721Z,77.06
2022-10-07T18:39:51.755Z,76.29
2022-10-07T18:42:23.667Z,76.94
2022-10-07T18:44:52.451Z,76.71
2022-10-07T18:47:20.756Z,76.32
2022-10-07T18:49:48.913Z,77.24
2022-10-07T18:52:24.295Z,77.29
2022-10-07T18:54:54.764Z,77.84
2022-10-07T18:57:23.755Z,79.05
2022-10-07T18:59:51.874Z,79.43
2022-10-07T19:02:19.969Z,79.09
2022-10-07T19:04:48.172Z,79.89
2022-10-07T19:07:16.179Z,79.32
2022-10-07T19:09:44.453Z,78.68
2022-10-07T19:12:31.367Z,78.19
2022-10-07T19:14:59.511Z,78.53
2022-10-07T19:17:28.339Z,78.64
2022-10-07T19:20:00.634Z,78.55
2022-10-07T19:22:28.777Z,79.22
2022-10-07T19:25:18.463Z,80.25
2022-10-07T19:27:49.572Z,79.96
2022-10-07T19:30:18.860Z,79.44
2022-10-07T19:32:47.818Z,78.97
2022-10-07T19:35:18.431Z,79.02
2022-10-07T19:37:46.912Z,79.45
2022-10-07T19:40:15.293Z,80.34
2022-10-07T19:42:43.151Z,80.78
2022-10-07T19:45:11.649Z,82.35
2022-10-07T19:47:46.142Z,82.40
2022-10-07T19:50:14.669Z,81.42
2022-10-07T19:52:46.198Z,81.91
2022-10-07T19:55:14.901Z,81.33
2022-10-07T19:57:42.793Z,81.10
2022-10-07T20:00:11.746Z,81.33
2022-10-07T20:02:40.446Z,82.18
2022-10-07T20:05:12.655Z,82.15
2022-10-07T20:07:40.855Z,81.97
2022-10-07T20:10:09.229Z,82.22
2022-10-07T20:12:40.617Z,82.63
2022-10-07T20:16:05.170Z,82.64
2022-10-07T20:18:35.395Z,83.10
2022-10-07T20:21:08.680Z,82.48
2022-10-07T20:23:40.269Z,83.43
2022-10-07T20:26:10.946Z,83.74
2022-10-07T20:28:42.278Z,84.11
2022-10-07T20:31:12.673Z,84.08
2022-10-07T20:33:46.474Z,83.77
2022-10-07T20:36:32.040Z,83.84
2022-10-07T20:39:26.428Z,83.71
2022-10-07T20:42:12.975Z,84.01
2022-10-07T20:44:41.449Z,83.61
2022-10-07T20:52:04.145Z,82.83
2022-10-07T20:54:33.416Z,82.82
2022-10-07T20:57:01.744Z,82.91
2022-10-07T20:59:33.709Z,82.84
2022-10-07T21:02:24.428Z,83.21
2022-10-07T21:05:11.383Z,83.21
2022-10-07T21:07:40.999Z,83.09
2022-10-07T21:10:12.195Z,83.19
2022-10-07T21:12:40.626Z,83.27
2022-10-07T21:15:10.675Z,83.73
2022-10-07T21:17:41.543Z,83.88
2022-10-07T21:20:10.465Z,83.72
2022-10-07T21:22:38.707Z,83.62
2022-10-07T21:25:07.369Z,83.83
2022-10-07T21:27:35.397Z,84.09
2022-10-07T21:30:04.175Z,84.26
2022-10-07T21:32:32.421Z,84.42
2022-10-07T21:35:01.057Z,84.42
2022-10-07T21:37:30.230Z,84.42
2022-10-07T21:39:59.712Z,84.48
2022-10-07T21:42:28.837Z,84.31
2022-10-07T21:44:57.045Z,84.42
2022-10-07T21:47:26.075Z,84.53
2022-10-07T21:49:57.039Z,84.76
2022-10-07T21:52:29.504Z,85.02
2022-10-07T21:54:57.635Z,85.34
2022-10-07T21:57:25.714Z,85.72
2022-10-07T21:59:53.924Z,86.89
2022-10-07T22:02:21.924Z,86.71
2022-10-07T22:04:52.602Z,86.52
2022-10-07T22:07:39.457Z,87.26
2022-10-07T22:10:08.256Z,87.15
2022-10-07T22:12:36.300Z,86.80
2022-10-07T22:15:04.641Z,87.32
2022-10-07T22:17:34.905Z,87.37
2022-10-07T22:20:03.094Z,87.13
2022-10-07T22:22:31.892Z,87.41
2022-10-07T22:24:59.940Z,87.35
2022-10-07T22:27:28.356Z,87.16
2022-10-07T22:29:57.241Z,87.31
2022-10-07T22:32:25.415Z,87.33
2022-10-07T22:35:11.947Z,87.65
2022-10-07T22:37:40.926Z,87.58
2022-10-07T22:40:09.664Z,87.44
2022-10-07T22:42:37.678Z,87.41
2022-10-07T22:45:07.502Z,88.10
2022-10-07T22:47:36.244Z,88.30
2022-10-07T22:50:08.340Z,88.11
2022-10-07T22:52:36.842Z,88.00
2022-10-07T22:55:06.343Z,87.82
2022-10-07T22:57:36.546Z,87.55
2022-10-07T23:00:06.439Z,87.44
2022-10-07T23:02:34.731Z,87.57
2022-10-07T23:05:03.148Z,87.80
2022-10-07T23:07:31.332Z,88.01
2022-10-07T23:09:59.559Z,88.54
2022-10-07T23:12:27.668Z,88.81
2022-10-07T23:14:55.654Z,89.07
2022-10-07T23:17:23.760Z,88.89
2022-10-07T23:19:51.701Z,88.53
2022-10-07T23:22:20.295Z,88.62
2022-10-07T23:24:48.346Z,88.76
2022-10-07T23:27:16.560Z,88.88
2022-10-07T23:29:44.559Z,88.77
2022-10-07T23:32:12.664Z,88.85
2022-10-07T23:34:40.943Z,89.48
2022-10-07T23:37:09.587Z,89.63
2022-10-07T23:39:37.679Z,89.77
2022-10-07T23:42:05.576Z,89.67
2022-10-07T23:44:34.419Z,89.73
2022-10-07T23:47:02.388Z,89.51
2022-10-07T23:49:30.599Z,89.39
2022-10-07T23:51:58.761Z,89.18
2022-10-07T23:54:26.813Z,89.15
2022-10-07T23:56:54.745Z,89.07
2022-10-07T23:59:24.142Z,88.96
